Time;durP1;ratioP1;P1;durP2;ratioP2;P2;SDS_P1;SDS_P2;PMS_P1;PMS_P2;Temp;Humidity;BMP_temperature;BMP_pressure;BME280_temperature;BME280_humidity;BME280_pressure;Samples;Min_cycle;Max_cycle;Signal;HPM_P1;HPM_P2
2024/03/30 00:01:40;;;;;;;48.80;22.17;;;;;;;9.50;48.90;100613.39;123432;1098;104347;-74
2024/03/30 00:04:11;;;;;;;52.07;21.17;;;;;;;9.47;48.81;100606.33;123264;1099;104347;-74
2024/03/30 00:06:43;;;;;;;51.17;20.57;;;;;;;9.44;49.01;100613.14;123234;1099;104350;-74
2024/03/30 00:09:15;;;;;;;47.70;20.70;;;;;;;9.40;49.63;100613.86;123612;1098;104354;-73
2024/03/30 00:11:46;;;;;;;46.63;21.07;;;;;;;9.36;49.76;100604.95;123274;1099;105786;-73
2024/03/30 00:14:18;;;;;;;48.40;21.27;;;;;;;9.32;49.04;100610.91;123172;1099;104466;-73
2024/03/30 00:16:49;;;;;;;47.60;20.60;;;;;;;9.28;49.52;100612.48;123188;1099;104277;-75
2024/03/30 00:19:21;;;;;;;47.40;20.50;;;;;;;9.27;49.83;100618.58;123169;1099;104303;-73
2024/03/30 00:21:52;;;;;;;46.20;21.10;;;;;;;9.29;49.51;100621.27;123296;1098;104273;-74
2024/03/30 00:24:23;;;;;;;44.90;20.73;;;;;;;9.29;50.00;100627.37;123673;1099;104293;-74
2024/03/30 00:26:55;;;;;;;42.33;20.33;;;;;;;9.30;49.58;100625.64;123203;1099;104230;-74
2024/03/30 00:29:26;;;;;;;45.95;19.90;;;;;;;9.30;49.61;100623.94;123473;1099;104370;-74
2024/03/30 00:31:57;;;;;;;41.30;19.67;;;;;;;9.31;49.82;100619.59;123445;1099;104226;-74
2024/03/30 00:34:28;;;;;;;44.27;20.40;;;;;;;9.33;50.35;100628.39;123208;1099;104383;-74
2024/03/30 00:37:00;;;;;;;46.67;21.93;;;;;;;9.33;49.80;100624.08;123137;1099;104635;-74
2024/03/30 00:39:31;;;;;;;44.87;19.90;;;;;;;9.32;50.37;100617.03;123211;1101;104389;-74
2024/03/30 00:42:03;;;;;;;41.93;19.30;;;;;;;9.27;49.78;100623.81;123128;1099;104325;-73
2024/03/30 00:44:36;;;;;;;44.33;20.03;;;;;;;9.23;50.48;100629.73;123155;1099;104280;-74
2024/03/30 00:47:07;;;;;;;45.87;20.17;;;;;;;9.22;50.65;100622.70;123195;1099;104395;-74
2024/03/30 00:49:38;;;;;;;47.03;20.67;;;;;;;9.18;50.48;100612.94;123197;1099;104524;-74
2024/03/30 00:52:10;;;;;;;48.83;20.70;;;;;;;9.14;50.77;100627.59;123250;1099;104326;-74
2024/03/30 00:54:41;;;;;;;45.10;20.27;;;;;;;9.14;50.47;100617.13;123213;1099;104357;-73
2024/03/30 00:57:13;;;;;;;45.20;20.20;;;;;;;9.11;50.56;100623.97;123183;1099;104277;-73
2024/03/30 00:59:44;;;;;;;43.90;21.17;;;;;;;9.10;50.78;100617.84;123160;1099;104357;-74
2024/03/30 01:02:16;;;;;;;48.70;19.63;;;;;;;9.08;50.72;100616.86;123098;1099;104328;-73
2024/03/30 01:04:48;;;;;;;39.40;18.13;;;;;;;9.08;50.88;100627.33;123160;1099;104357;-73
2024/03/30 01:07:19;;;;;;;40.30;19.30;;;;;;;9.07;51.13;100630.80;123180;1099;104251;-75
2024/03/30 01:09:51;;;;;;;40.90;19.30;;;;;;;9.06;50.74;100625.50;123174;1099;104262;-74
2024/03/30 01:12:24;;;;;;;41.47;18.57;;;;;;;9.01;50.78;100617.44;123168;1099;104495;-73
2024/03/30 01:14:57;;;;;;;38.65;18.80;;;;;;;8.98;50.90;100618.19;123445;1099;104287;-74
2024/03/30 01:17:29;;;;;;;39.40;18.13;;;;;;;8.97;51.43;100611.16;123210;1099;104339;-74
2024/03/30 01:20:02;;;;;;;42.10;18.93;;;;;;;8.97;51.08;100615.50;123455;1099;104299;-74
2024/03/30 01:22:36;;;;;;;40.90;19.40;;;;;;;8.96;51.29;100617.23;123505;1099;104320;-74
2024/03/30 01:25:10;;;;;;;42.57;19.30;;;;;;;8.92;50.92;100612.69;123298;1099;104960;-74
2024/03/30 01:27:43;;;;;;;39.50;17.77;;;;;;;8.89;50.91;100620.40;123216;1099;104393;-74
2024/03/30 01:30:18;;;;;;;40.40;18.57;;;;;;;8.87;50.93;100610.72;123187;1099;104270;-74
2024/03/30 01:32:51;;;;;;;43.13;18.37;;;;;;;8.84;51.45;100610.58;123176;1100;104309;-74
2024/03/30 01:35:23;;;;;;;39.60;18.13;;;;;;;8.86;51.18;100620.27;123262;1099;104352;-74
2024/03/30 01:37:54;;;;;;;37.30;17.47;;;;;;;8.87;51.25;100603.75;123375;1099;104324;-73
2024/03/30 01:40:25;;;;;;;37.07;18.40;;;;;;;8.89;51.67;100616.90;123157;1099;104335;-73
2024/03/30 01:42:56;;;;;;;40.17;18.77;;;;;;;8.86;51.63;100612.41;123195;1099;104313;-73
2024/03/30 01:45:31;;;;;;;40.00;18.95;;;;;;;8.88;51.69;100617.71;123142;1102;104274;-74
2024/03/30 01:48:06;;;;;;;42.80;19.10;;;;;;;8.90;52.22;100613.47;123174;1099;104267;-74
2024/03/30 01:50:39;;;;;;;40.10;20.87;;;;;;;8.91;51.71;100625.70;123216;1099;104784;-73
2024/03/30 01:53:13;;;;;;;42.83;20.90;;;;;;;8.94;52.07;100624.14;123385;1099;104387;-74
2024/03/30 01:55:46;;;;;;;44.97;21.17;;;;;;;8.94;52.16;100628.45;123408;1098;104835;-74
2024/03/30 01:58:22;;;;;;;47.40;22.90;;;;;;;8.91;52.26;100626.62;123240;1099;104277;-74
2024/03/30 02:00:55;;;;;;;45.95;21.80;;;;;;;8.92;52.80;100625.77;123124;1102;104245;-74
2024/03/30 02:03:27;;;;;;;41.30;19.25;;;;;;;8.94;52.65;100623.22;123120;1099;104361;-74
2024/03/30 02:06:00;;;;;;;37.95;18.60;;;;;;;8.92;52.25;100623.16;123117;1099;104335;-73
2024/03/30 02:08:32;;;;;;;42.03;19.95;;;;;;;8.93;52.96;100626.69;123249;1102;104287;-73
2024/03/30 02:11:04;;;;;;;43.00;19.20;;;;;;;8.92;52.65;100636.23;123191;1099;104373;-74
2024/03/30 02:13:36;;;;;;;43.27;19.50;;;;;;;8.94;52.41;100647.69;123149;1099;104284;-74
2024/03/30 02:16:08;;;;;;;39.67;19.17;;;;;;;8.94;52.57;100654.63;123112;1102;104314;-74
2024/03/30 02:18:40;;;;;;;40.93;18.77;;;;;;;8.94;53.18;100662.48;123071;1099;104396;-74
2024/03/30 02:21:11;;;;;;;40.30;19.60;;;;;;;8.92;53.14;100659.80;123203;1099;104283;-74
2024/03/30 02:23:42;;;;;;;42.55;18.90;;;;;;;8.91;53.28;100662.34;123271;1099;104354;-74
2024/03/30 02:26:13;;;;;;;41.23;17.93;;;;;;;8.91;53.35;100660.64;123432;1098;104278;-73
2024/03/30 02:28:46;;;;;;;36.55;17.35;;;;;;;8.92;53.43;100665.03;123409;1099;104373;-74
2024/03/30 02:31:17;;;;;;;36.40;17.47;;;;;;;8.92;53.00;100666.76;123432;1099;104307;-75
2024/03/30 02:33:49;;;;;;;38.23;17.17;;;;;;;8.95;53.08;100672.13;123471;1099;104280;-73
2024/03/30 02:36:23;;;;;;;39.87;18.23;;;;;;;8.94;52.85;100662.48;123188;1099;104267;-74
2024/03/30 02:38:55;;;;;;;32.70;15.85;;;;;;;8.94;53.56;100658.16;123256;1099;104271;-74
2024/03/30 02:41:26;;;;;;;29.83;14.37;;;;;;;8.95;53.44;100664.28;123218;1100;104358;-74
2024/03/30 02:43:58;;;;;;;33.87;16.67;;;;;;;8.94;53.16;100660.78;123259;1099;104382;-74
2024/03/30 02:46:29;;;;;;;37.03;15.80;;;;;;;8.93;53.09;100666.83;123612;1099;104350;-74
2024/03/30 02:49:01;;;;;;;36.40;15.47;;;;;;;8.91;53.44;100665.88;123168;1102;104258;-73
2024/03/30 02:51:32;;;;;;;35.60;15.83;;;;;;;8.92;53.57;100667.64;123159;1102;104366;-75
2024/03/30 02:54:03;;;;;;;30.80;14.70;;;;;;;8.91;53.24;100665.88;123140;1099;104350;-73
2024/03/30 02:56:35;;;;;;;31.03;15.43;;;;;;;8.90;52.93;100666.69;123478;1099;107208;-75
2024/03/30 02:59:06;;;;;;;28.57;12.90;;;;;;;8.90;53.19;100665.80;123506;1099;104402;-74
2024/03/30 03:01:37;;;;;;;33.13;12.27;;;;;;;8.91;53.17;100662.34;123487;1099;104297;-74
2024/03/30 03:04:09;;;;;;;24.90;12.10;;;;;;;8.92;53.32;100658.91;123425;1099;104252;-74
2024/03/30 03:06:40;;;;;;;26.47;11.90;;;;;;;8.92;53.43;100659.80;123171;1099;118948;-73
2024/03/30 03:09:11;;;;;;;27.17;11.43;;;;;;;8.96;52.98;100660.81;123140;1099;104459;-75
2024/03/30 03:11:43;;;;;;;25.97;11.97;;;;;;;8.97;53.41;100658.27;123152;1099;104275;-74
2024/03/30 03:14:14;;;;;;;25.30;11.55;;;;;;;8.98;53.38;100662.69;123198;1099;104255;-74
2024/03/30 03:16:46;;;;;;;30.37;12.10;;;;;;;9.01;53.52;100661.94;123410;1099;104200;-75
2024/03/30 03:19:18;;;;;;;25.40;11.67;;;;;;;9.02;53.31;100663.70;123461;1099;104280;-73
2024/03/30 03:21:49;;;;;;;25.33;10.93;;;;;;;9.05;53.06;100668.20;123400;1099;104379;-74
2024/03/30 03:24:20;;;;;;;24.17;10.80;;;;;;;9.06;53.46;100675.23;123476;1099;104197;-74
2024/03/30 03:26:52;;;;;;;27.17;11.17;;;;;;;9.03;52.97;100664.63;123179;1099;104232;-74
2024/03/30 03:29:23;;;;;;;25.27;10.87;;;;;;;8.98;53.66;100661.80;123318;1099;104408;-74
2024/03/30 03:31:55;;;;;;;22.75;10.30;;;;;;;8.97;52.97;100663.50;123253;1099;104328;-75
2024/03/30 03:34:26;;;;;;;23.97;10.70;;;;;;;8.97;53.14;100660.00;123115;1099;104354;-74
2024/03/30 03:36:57;;;;;;;23.50;10.17;;;;;;;8.96;53.67;100669.58;123466;1099;104335;-74
2024/03/30 03:39:28;;;;;;;23.60;10.07;;;;;;;8.98;53.64;100670.54;123454;1098;104280;-74
2024/03/30 03:42:00;;;;;;;28.77;10.70;;;;;;;8.98;53.19;100659.19;123173;1099;104824;-74
2024/03/30 03:44:31;;;;;;;20.07;10.07;;;;;;;8.98;53.07;100665.30;123227;1099;104303;-74
2024/03/30 03:47:03;;;;;;;22.70;10.07;;;;;;;8.98;53.18;100653.95;123152;1099;105623;-74
2024/03/30 03:49:34;;;;;;;21.50;9.53;;;;;;;8.97;53.02;100653.03;123185;1099;104258;-74
2024/03/30 03:52:06;;;;;;;25.67;11.03;;;;;;;8.97;53.11;100642.56;123228;1099;104355;-74
2024/03/30 03:54:37;;;;;;;27.93;10.23;;;;;;;8.95;53.57;100638.99;123172;1099;104252;-73
2024/03/30 03:57:09;;;;;;;31.35;12.20;;;;;;;8.95;53.93;100636.38;123398;1099;104280;-74
2024/03/30 03:59:40;;;;;;;24.53;11.33;;;;;;;8.96;53.33;100643.41;123430;1099;104248;-74
2024/03/30 04:02:11;;;;;;;24.80;9.93;;;;;;;8.97;53.92;100644.30;123154;1099;104373;-75
2024/03/30 04:04:42;;;;;;;22.77;9.97;;;;;;;8.98;53.35;100649.59;123208;1099;104373;-74
2024/03/30 04:07:14;;;;;;;25.97;10.70;;;;;;;9.03;53.68;100641.06;123174;1099;104249;-74
2024/03/30 04:09:45;;;;;;;26.53;9.40;;;;;;;9.07;53.38;100646.50;123150;1102;104369;-75
2024/03/30 04:12:17;;;;;;;23.50;10.33;;;;;;;9.09;54.03;100644.84;123119;1099;104364;-75
2024/03/30 04:14:48;;;;;;;24.43;10.50;;;;;;;9.13;53.81;100646.78;123184;1099;104300;-75
2024/03/30 04:17:19;;;;;;;21.03;9.37;;;;;;;9.16;53.80;100645.99;123307;1099;104717;-74
2024/03/30 04:19:51;;;;;;;27.47;11.23;;;;;;;9.18;53.90;100634.77;123029;1099;104195;-74
2024/03/30 04:22:22;;;;;;;24.60;10.87;;;;;;;9.21;53.42;100634.02;123418;1099;104273;-73
2024/03/30 04:24:54;;;;;;;26.83;11.80;;;;;;;9.25;54.24;100648.13;123421;1098;104297;-74
2024/03/30 04:27:25;;;;;;;27.07;11.70;;;;;;;9.27;53.60;100643.84;123115;1099;104393;-74
2024/03/30 04:29:56;;;;;;;24.00;10.87;;;;;;;9.30;54.27;100644.89;123246;1099;104211;-75
2024/03/30 04:32:27;;;;;;;26.90;11.80;;;;;;;9.36;53.74;100639.00;123177;1099;104495;-74
2024/03/30 04:34:59;;;;;;;26.87;11.63;;;;;;;9.40;54.00;100645.29;123209;1099;104345;-75
2024/03/30 04:37:30;;;;;;;28.73;11.13;;;;;;;9.45;53.93;100638.52;123249;1098;104424;-75
2024/03/30 04:40:03;;;;;;;30.27;12.83;;;;;;;9.51;54.23;100646.63;123469;1099;104323;-74
2024/03/30 04:42:34;;;;;;;29.37;12.20;;;;;;;9.54;54.54;100641.52;123479;1098;104636;-75
2024/03/30 04:45:06;;;;;;;30.17;13.43;;;;;;;9.56;54.67;100649.45;123487;1099;104255;-74
2024/03/30 04:47:37;;;;;;;33.83;13.23;;;;;;;9.57;54.20;100639.03;123229;1099;104283;-73
2024/03/30 04:50:09;;;;;;;31.85;14.10;;;;;;;9.57;54.43;100653.83;123127;1099;104310;-76
2024/03/30 04:52:40;;;;;;;32.73;13.83;;;;;;;9.56;54.34;100642.47;123158;1098;104344;-74
2024/03/30 04:55:11;;;;;;;29.80;14.13;;;;;;;9.59;54.34;100641.72;123190;1099;104252;-75
2024/03/30 04:57:43;;;;;;;33.67;15.10;;;;;;;9.60;54.23;100638.24;123265;1099;104251;-73
2024/03/30 05:00:15;;;;;;;31.97;14.07;;;;;;;9.64;54.74;100634.93;123472;1099;104432;-74
2024/03/30 05:02:46;;;;;;;30.27;12.10;;;;;;;9.70;54.59;100643.05;123383;1099;105108;-75
2024/03/30 05:05:17;;;;;;;24.77;10.57;;;;;;;9.76;54.80;100645.92;123461;1099;104297;-73
2024/03/30 05:07:49;;;;;;;24.33;10.43;;;;;;;9.81;54.03;100647.00;123307;1099;104281;-74
2024/03/30 05:10:20;;;;;;;25.33;11.43;;;;;;;9.88;54.25;100649.05;123406;1099;104280;-72
2024/03/30 05:12:51;;;;;;;28.53;10.43;;;;;;;9.99;54.36;100635.50;123439;1099;104383;-73
2024/03/30 05:15:23;;;;;;;22.67;9.73;;;;;;;10.10;54.18;100643.76;123404;1098;104342;-74
2024/03/30 05:17:54;;;;;;;27.93;11.23;;;;;;;10.20;54.49;100632.81;123460;1099;104364;-74
2024/03/30 05:20:49;;;;;;;26.50;12.03;;;;;;;10.31;54.50;100630.61;123326;1099;104229;-74
2024/03/30 05:23:22;;;;;;;30.27;12.00;;;;;;;10.44;54.83;100630.30;123126;1099;104354;-73
2024/03/30 05:25:55;;;;;;;24.47;11.03;;;;;;;10.55;54.54;100635.92;123181;1098;104341;-73
2024/03/30 05:28:29;;;;;;;24.80;10.80;;;;;;;10.63;54.21;100629.25;123129;1099;104274;-73
2024/03/30 05:31:02;;;;;;;;;;;;;;;10.70;54.34;100638.24;123223;1099;104313;-74
2024/03/30 05:33:33;;;;;;;25.63;10.17;;;;;;;10.81;54.71;100625.52;123140;1099;104319;-73
2024/03/30 05:36:05;;;;;;;22.77;9.70;;;;;;;10.91;54.55;100630.28;123202;1099;104409;-73
2024/03/30 05:38:36;;;;;;;22.23;9.07;;;;;;;11.04;54.41;100628.98;123111;1099;104277;-73
2024/03/30 05:41:08;;;;;;;20.35;7.60;;;;;;;11.15;54.20;100627.63;123158;1099;104344;-73
2024/03/30 05:43:39;;;;;;;17.70;8.27;;;;;;;11.25;54.14;100626.20;123146;1099;104392;-73
2024/03/30 05:46:10;;;;;;;23.37;7.53;;;;;;;11.39;54.13;100634.56;123262;1099;104304;-73
2024/03/30 05:48:42;;;;;;;21.63;7.30;;;;;;;11.53;54.24;100630.70;123426;1099;104341;-73
2024/03/30 05:51:13;;;;;;;16.30;6.50;;;;;;;11.65;53.71;100627.56;123485;1098;104327;-73
2024/03/30 05:53:46;;;;;;;16.47;6.30;;;;;;;11.76;53.89;100631.44;123366;1099;104383;-73
2024/03/30 05:56:18;;;;;;;19.77;7.47;;;;;;;11.90;53.66;100638.89;123609;1099;104405;-73
2024/03/30 05:58:50;;;;;;;14.97;5.70;;;;;;;12.04;53.52;100632.37;123303;1099;104370;-73
2024/03/30 06:01:21;;;;;;;16.53;6.27;;;;;;;12.16;52.93;100631.88;123138;1099;104315;-73
2024/03/30 06:03:53;;;;;;;14.97;5.73;;;;;;;12.27;53.02;100624.31;123214;1099;104570;-74
2024/03/30 06:06:24;;;;;;;12.70;5.27;;;;;;;12.38;52.51;100622.90;123128;1099;104514;-73
2024/03/30 06:08:55;;;;;;;11.55;5.20;;;;;;;12.52;52.58;100626.83;123119;1099;104315;-74
2024/03/30 06:11:28;;;;;;;12.47;5.47;;;;;;;12.67;52.71;100628.12;123010;1102;105034;-73
2024/03/30 06:13:59;;;;;;;14.87;5.63;;;;;;;12.79;52.59;100623.20;123174;1099;104377;-73
2024/03/30 06:16:30;;;;;;;12.37;4.70;;;;;;;12.89;51.71;100622.63;123210;1099;104254;-73
2024/03/30 06:19:02;;;;;;;17.97;5.27;;;;;;;12.94;51.71;100623.64;123113;1099;104434;-73
2024/03/30 06:21:33;;;;;;;12.43;4.70;;;;;;;13.07;51.52;100622.27;123094;1099;104255;-74
2024/03/30 06:24:05;;;;;;;14.37;4.60;;;;;;;13.19;51.38;100628.72;123070;1099;104342;-73
2024/03/30 06:26:36;;;;;;;13.73;4.87;;;;;;;13.28;51.32;100626.33;123132;1099;104242;-73
2024/03/30 06:29:09;;;;;;;12.87;5.10;;;;;;;13.40;50.98;100626.69;123146;1099;104222;-74
2024/03/30 06:31:40;;;;;;;12.50;5.35;;;;;;;13.48;50.41;100622.50;123083;1099;104254;-73
2024/03/30 06:34:15;;;;;;;14.87;5.67;;;;;;;13.58;50.87;100626.25;123123;1098;104271;-74
2024/03/30 06:36:46;;;;;;;14.23;5.63;;;;;;;13.75;50.90;100620.52;123166;1099;104239;-73
2024/03/30 06:39:18;;;;;;;13.90;5.60;;;;;;;13.93;51.51;100623.61;123113;1099;104271;-73
2024/03/30 06:44:38;;;;;;;16.87;6.00;;;;;;;14.27;50.93;100623.48;123132;1099;104396;-73
2024/03/30 06:47:09;;;;;;;16.97;6.07;;;;;;;14.41;50.44;100616.76;123260;1098;104271;-73
2024/03/30 06:49:41;;;;;;;12.43;5.30;;;;;;;14.53;50.39;100621.42;123265;1099;105720;-73
2024/03/30 06:52:12;;;;;;;13.67;5.33;;;;;;;14.65;49.93;100619.08;123456;1099;104290;-73
2024/03/30 06:54:44;;;;;;;16.63;4.70;;;;;;;14.73;49.09;100619.23;123452;1099;104239;-73
2024/03/30 06:57:16;;;;;;;13.50;4.77;;;;;;;14.82;49.78;100619.43;123450;1099;104226;-73
2024/03/30 06:59:48;;;;;;;11.93;4.53;;;;;;;15.00;49.68;100624.17;123332;1099;104329;-73
2024/03/30 07:02:19;;;;;;;13.77;5.03;;;;;;;15.17;49.06;100606.00;123147;1099;104390;-74
2024/03/30 07:04:51;;;;;;;8.63;3.80;;;;;;;15.34;49.59;100608.95;123109;1099;104418;-72
2024/03/30 07:07:22;;;;;;;10.57;4.10;;;;;;;15.51;48.97;100603.08;123141;1099;104245;-73
2024/03/30 07:09:54;;;;;;;12.33;3.93;;;;;;;15.68;48.93;100595.44;123222;1099;104511;-73
2024/03/30 07:12:25;;;;;;;9.13;3.90;;;;;;;15.88;49.74;100596.67;123202;1099;104540;-73
2024/03/30 07:14:57;;;;;;;9.53;3.73;;;;;;;16.08;49.11;100594.33;123272;1099;104258;-73
2024/03/30 07:17:29;;;;;;;9.20;3.80;;;;;;;16.25;48.45;100596.31;123421;1098;104252;-74
2024/03/30 07:20:01;;;;;;;10.25;3.80;;;;;;;16.44;48.96;100594.80;123344;1099;104274;-73
2024/03/30 07:22:32;;;;;;;7.53;3.60;;;;;;;16.62;48.63;100591.50;123117;1099;104319;-73
2024/03/30 07:25:04;;;;;;;9.63;3.67;;;;;;;16.76;47.69;100586.37;123168;1099;104252;-75
2024/03/30 07:27:36;;;;;;;11.57;3.60;;;;;;;16.89;48.14;100586.57;123143;1099;104660;-72
2024/03/30 07:30:09;;;;;;;9.35;3.70;;;;;;;17.06;48.13;100584.11;123416;1099;104261;-73
2024/03/30 07:32:41;;;;;;;11.05;3.58;;;;;;;17.24;47.77;100585.16;123496;1099;104358;-72
2024/03/30 07:35:12;;;;;;;10.70;3.60;;;;;;;17.45;47.47;100584.45;123514;1099;104402;-72
2024/03/30 07:37:46;;;;;;;12.15;3.25;;;;;;;17.64;47.52;100587.27;123440;1099;104313;-73
2024/03/30 07:40:17;;;;;;;9.68;3.12;;;;;;;17.73;46.25;100579.37;123395;1099;104322;-74
2024/03/30 07:42:49;;;;;;;10.90;3.63;;;;;;;17.75;46.50;100585.61;123545;1099;104262;-74
2024/03/30 07:45:20;;;;;;;8.13;2.73;;;;;;;17.95;46.24;100575.14;123467;1099;104399;-73
2024/03/30 07:47:52;;;;;;;7.83;3.10;;;;;;;18.24;46.39;100574.44;123183;1099;104521;-73
2024/03/30 07:50:24;;;;;;;5.57;2.27;;;;;;;18.44;46.40;100574.55;123235;1099;104290;-73
2024/03/30 07:52:55;;;;;;;4.87;2.40;;;;;;;18.61;46.46;100572.84;123501;1099;104310;-73
2024/03/30 07:55:26;;;;;;;4.70;2.17;;;;;;;18.84;45.93;100582.68;123155;1099;104176;-73
2024/03/30 07:57:58;;;;;;;8.13;2.10;;;;;;;19.03;45.83;100578.33;123455;1099;104277;-73
2024/03/30 08:00:30;;;;;;;7.80;2.27;;;;;;;19.20;45.28;100579.23;123353;1099;104337;-73
2024/03/30 08:03:01;;;;;;;6.27;2.40;;;;;;;19.39;45.97;100574.81;123171;1102;104654;-73
2024/03/30 08:05:33;;;;;;;4.70;2.40;;;;;;;19.53;45.33;100568.63;123236;1100;104393;-73
2024/03/30 08:08:05;;;;;;;9.93;2.40;;;;;;;19.67;45.00;100572.16;123150;1099;104166;-73
2024/03/30 08:10:37;;;;;;;6.07;2.50;;;;;;;19.83;44.35;100572.19;123083;1100;104827;-73
2024/03/30 08:13:08;;;;;;;7.50;2.50;;;;;;;19.93;44.62;100569.51;123134;1099;104463;-73
2024/03/30 08:15:40;;;;;;;4.33;2.17;;;;;;;20.00;44.22;100569.50;123134;1099;104256;-73
2024/03/30 08:18:11;;;;;;;5.23;2.00;;;;;;;20.07;44.35;100563.25;123160;1099;104251;-72
2024/03/30 08:20:43;;;;;;;7.40;2.33;;;;;;;20.10;43.36;100572.14;123116;1102;104290;-73
2024/03/30 08:23:14;;;;;;;8.23;2.33;;;;;;;20.15;43.88;100563.23;123251;1099;104243;-73
2024/03/30 08:25:47;;;;;;;8.73;2.30;;;;;;;20.11;43.27;100560.58;123080;1099;104238;-73
2024/03/30 08:28:19;;;;;;;7.60;2.27;;;;;;;20.07;43.75;100561.49;123163;1099;104323;-73
2024/03/30 08:30:50;;;;;;;5.80;2.40;;;;;;;20.10;43.48;100563.23;123105;1099;104383;-74
2024/03/30 08:33:22;;;;;;;6.53;2.40;;;;;;;20.18;43.37;100558.80;123157;1102;104277;-74
2024/03/30 08:35:56;;;;;;;5.33;2.10;;;;;;;20.36;43.83;100555.17;123160;1099;104381;-73
2024/03/30 08:38:28;;;;;;;6.63;2.70;;;;;;;20.64;42.72;100555.06;123180;1099;104859;-73
2024/03/30 08:40:59;;;;;;;5.63;2.50;;;;;;;20.90;43.50;100554.08;123141;1099;104236;-73
2024/03/30 08:43:30;;;;;;;7.93;2.33;;;;;;;21.18;42.65;100554.78;123093;1099;104392;-73
2024/03/30 08:46:03;;;;;;;8.83;2.40;;;;;;;21.41;42.52;100551.95;123224;1099;104235;-74
2024/03/30 08:48:35;;;;;;;8.13;2.43;;;;;;;21.50;41.55;100551.91;123537;1099;104271;-73
2024/03/30 08:51:06;;;;;;;6.73;2.30;;;;;;;21.50;42.80;100546.56;123269;1099;104396;-73
2024/03/30 08:53:38;;;;;;;5.13;2.10;;;;;;;21.66;41.63;100539.30;123093;1099;104271;-73
2024/03/30 08:56:09;;;;;;;4.57;2.30;;;;;;;21.79;42.23;100534.71;123114;1099;104316;-73
2024/03/30 08:58:41;;;;;;;10.70;2.70;;;;;;;21.95;42.37;100531.89;123214;1099;104175;-72
2024/03/30 09:01:12;;;;;;;10.10;2.60;;;;;;;22.01;41.58;100534.49;123158;1099;104358;-73
2024/03/30 09:03:43;;;;;;;8.80;2.50;;;;;;;22.02;42.31;100539.82;123089;1099;104373;-72
2024/03/30 09:06:15;;;;;;;8.53;2.60;;;;;;;22.00;41.60;100535.37;123137;1099;104316;-72
2024/03/30 09:08:46;;;;;;;8.37;2.67;;;;;;;21.98;41.59;100537.20;123078;1100;104361;-72
2024/03/30 09:11:18;;;;;;;6.43;2.60;;;;;;;21.90;41.66;100535.48;123157;1099;104329;-72
2024/03/30 09:13:49;;;;;;;6.37;2.60;;;;;;;21.79;41.33;100524.03;123515;1099;104853;-73
2024/03/30 09:16:23;;;;;;;4.27;2.43;;;;;;;21.75;41.89;100530.29;123121;1099;104406;-73
2024/03/30 09:18:54;;;;;;;7.53;2.50;;;;;;;21.67;41.59;100521.48;123170;1099;104347;-74
2024/03/30 09:21:26;;;;;;;5.90;2.47;;;;;;;21.71;41.43;100516.09;123415;1099;104326;-73
2024/03/30 09:23:57;;;;;;;6.73;2.70;;;;;;;21.75;41.46;100511.59;123236;1099;104344;-73
2024/03/30 09:26:28;;;;;;;12.43;3.00;;;;;;;21.78;41.35;100519.58;123729;1099;104255;-73
2024/03/30 09:29:00;;;;;;;7.55;2.90;;;;;;;21.81;41.81;100516.00;123194;1099;104360;-73
2024/03/30 09:31:32;;;;;;;10.43;3.00;;;;;;;21.77;41.29;100517.83;123262;1099;104323;-73
2024/03/30 09:34:03;;;;;;;7.90;2.80;;;;;;;21.73;41.27;100506.27;123134;1099;104622;-73
2024/03/30 09:36:34;;;;;;;9.23;2.90;;;;;;;21.70;41.32;100511.64;123438;1099;104264;-73
2024/03/30 09:39:06;;;;;;;8.17;2.37;;;;;;;21.70;41.04;100508.97;123447;1099;104338;-72
2024/03/30 09:41:49;;;;;;;11.00;3.10;;;;;;;21.70;40.97;100494.74;123403;1099;104345;-72
2024/03/30 09:44:21;;;;;;;8.70;3.05;;;;;;;21.72;41.31;100498.27;123347;1099;104329;-73
2024/03/30 09:46:54;;;;;;;11.87;3.10;;;;;;;21.75;41.17;100503.58;123163;1099;104214;-73
2024/03/30 09:49:26;;;;;;;10.40;3.00;;;;;;;21.78;41.43;100502.67;123145;1099;104220;-73
2024/03/30 09:51:59;;;;;;;9.00;3.20;;;;;;;21.81;41.50;100489.30;123220;1099;104194;-73
2024/03/30 09:54:32;;;;;;;10.23;3.37;;;;;;;21.88;41.44;100493.68;123393;1099;105073;-74
2024/03/30 09:57:04;;;;;;;7.22;2.75;;;;;;;21.92;41.82;100494.52;123288;1099;104472;-73
2024/03/30 09:59:36;;;;;;;12.00;3.30;;;;;;;22.00;41.62;100497.98;123449;1099;104258;-73
2024/03/30 10:02:08;;;;;;;8.23;3.23;;;;;;;22.05;40.80;100502.38;123178;1099;104325;-73
2024/03/30 10:04:42;;;;;;;10.67;2.80;;;;;;;22.14;40.96;100498.69;123179;1099;105687;-73
2024/03/30 10:07:18;;;;;;;8.05;3.00;;;;;;;22.23;41.73;100495.03;123177;1099;104466;-73
2024/03/30 10:09:55;;;;;;;8.97;3.10;;;;;;;22.29;40.72;100492.29;123250;1099;104268;-73
2024/03/30 10:12:33;;;;;;;11.07;3.20;;;;;;;22.35;40.92;100492.25;123388;1099;105845;-72
2024/03/30 10:15:11;;;;;;;8.40;3.05;;;;;;;22.36;40.87;100487.77;123555;1097;104313;-72
2024/03/30 10:17:42;;;;;;;10.00;3.40;;;;;;;22.35;40.89;100481.55;123225;1099;104345;-72
2024/03/30 10:20:24;;;;;;;7.90;3.07;;;;;;;22.39;40.98;100477.95;123497;1099;104329;-72
2024/03/30 10:22:55;;;;;;;8.40;2.90;;;;;;;22.45;40.65;100476.95;123199;1099;104268;-73
2024/03/30 10:25:28;;;;;;;8.65;3.10;;;;;;;22.52;40.54;100467.95;123133;1099;110724;-73
2024/03/30 10:27:59;;;;;;;11.03;3.20;;;;;;;22.59;40.75;100466.98;123374;1099;104338;-74
2024/03/30 10:30:31;;;;;;;12.27;3.10;;;;;;;22.71;40.97;100460.55;123309;1099;104360;-73
2024/03/30 10:33:10;;;;;;;9.03;3.03;;;;;;;22.85;40.86;100456.79;123538;1099;104398;-73
2024/03/30 10:35:46;;;;;;;7.83;3.10;;;;;;;23.04;40.70;100458.24;123209;1099;104242;-73
2024/03/30 10:38:15;;;;;;;;;;;;;;;23.16;40.37;100446.50;123515;1099;104236;-73
2024/03/30 10:40:48;;;;;;;8.70;2.80;;;;;;;23.30;40.31;100447.13;123463;1099;104293;-73
2024/03/30 10:43:21;;;;;;;13.23;3.53;;;;;;;23.37;40.13;100447.02;123434;1099;104738;-73
2024/03/30 10:45:52;;;;;;;8.23;3.10;;;;;;;23.44;40.26;100437.98;123107;1099;105330;-73
2024/03/30 10:48:24;;;;;;;12.80;3.13;;;;;;;23.52;40.22;100446.75;123302;1099;104358;-73
2024/03/30 10:50:56;;;;;;;8.40;3.10;;;;;;;23.60;39.86;100433.21;123106;1099;104290;-72
2024/03/30 10:53:27;;;;;;;10.47;3.13;;;;;;;23.63;39.31;100431.34;123241;1099;104361;-72
2024/03/30 10:55:58;;;;;;;7.60;3.30;;;;;;;23.81;39.68;100427.44;123322;1099;104287;-73
2024/03/30 10:58:31;;;;;;;10.47;3.10;;;;;;;23.98;39.37;100428.91;123310;1099;104242;-74
2024/03/30 11:01:04;;;;;;;10.10;3.17;;;;;;;24.19;39.69;100416.86;123263;1099;104710;-73
2024/03/30 11:03:38;;;;;;;8.47;3.00;;;;;;;24.34;38.80;100416.52;123149;1099;104357;-74
2024/03/30 11:06:11;;;;;;;7.83;2.77;;;;;;;24.43;38.96;100422.58;123262;1102;104251;-71
2024/03/30 11:08:44;;;;;;;12.82;3.70;;;;;;;24.54;38.98;100420.52;123192;1099;104724;-72
2024/03/30 11:11:16;;;;;;;6.63;2.80;;;;;;;24.63;38.70;100419.47;123118;1099;104357;-72
2024/03/30 11:13:47;;;;;;;6.70;3.00;;;;;;;24.71;38.33;100415.70;123287;1102;104363;-72
2024/03/30 11:16:21;;;;;;;10.72;3.52;;;;;;;24.80;38.05;100401.16;123157;1099;104211;-72
2024/03/30 11:19:06;;;;;;;9.60;3.00;;;;;;;24.90;37.49;100396.44;123221;1099;104395;-72
2024/03/30 11:21:45;;;;;;;5.23;3.00;;;;;;;24.95;36.77;100399.91;123274;1099;104354;-72
2024/03/30 11:24:19;;;;;;;10.93;3.10;;;;;;;24.98;37.04;100388.19;123121;1099;104411;-72
2024/03/30 11:27:06;;;;;;;9.23;3.10;;;;;;;24.94;36.89;100392.77;123172;1099;104219;-73
2024/03/30 11:29:42;;;;;;;13.63;3.10;;;;;;;24.90;37.45;100391.06;123164;1098;104272;-73